createdAt,value
2022-08-31T00:00:23.047Z,7.30
2022-08-31T00:03:08.316Z,7.40
2022-08-31T00:05:39.348Z,6.50
2022-08-31T00:08:08.061Z,7.50
2022-08-31T00:10:36.960Z,7.20
2022-08-31T00:13:07.081Z,6.33
2022-08-31T00:15:36.601Z,5.80
2022-08-31T00:18:05.202Z,6.00
2022-08-31T00:20:34.947Z,6.07
2022-08-31T00:23:04.998Z,5.70
2022-08-31T00:25:34.444Z,5.83
2022-08-31T00:28:02.665Z,5.87
2022-08-31T00:30:31.057Z,7.10
2022-08-31T00:32:59.945Z,6.23
2022-08-31T00:35:28.960Z,6.13
2022-08-31T00:37:57.592Z,7.00
2022-08-31T00:40:28.396Z,7.53
2022-08-31T00:42:56.651Z,7.50
2022-08-31T00:45:25.339Z,6.03
2022-08-31T00:47:54.083Z,6.20
2022-08-31T00:50:25.005Z,6.23
2022-08-31T00:52:57.822Z,7.13
2022-08-31T00:55:32.231Z,6.17
2022-08-31T00:58:04.525Z,6.70
2022-08-31T01:00:33.045Z,6.50
2022-08-31T01:03:02.830Z,7.30
2022-08-31T01:05:32.553Z,8.10
2022-08-31T01:08:02.142Z,6.13
2022-08-31T01:10:34.988Z,6.00
2022-08-31T01:13:03.803Z,6.97
2022-08-31T01:15:32.480Z,6.30
2022-08-31T01:18:02.339Z,6.47
2022-08-31T01:20:37.416Z,7.00
2022-08-31T01:23:15.097Z,6.97
2022-08-31T01:25:45.325Z,6.10
2022-08-31T01:28:14.537Z,7.00
2022-08-31T01:30:44.950Z,6.80
2022-08-31T01:33:13.936Z,6.50
2022-08-31T01:35:45.948Z,6.40
2022-08-31T01:38:15.564Z,7.27
2022-08-31T01:40:50.520Z,6.70
2022-08-31T01:43:18.903Z,6.40
2022-08-31T01:45:47.548Z,6.47
2022-08-31T01:48:15.756Z,6.77
2022-08-31T01:50:44.057Z,6.53
2022-08-31T01:53:12.860Z,6.90
2022-08-31T01:55:42.968Z,6.57
2022-08-31T01:58:11.107Z,6.30
2022-08-31T02:00:39.371Z,7.57
2022-08-31T02:03:08.349Z,7.00
2022-08-31T02:05:36.708Z,7.10
2022-08-31T02:08:05.868Z,6.77
2022-08-31T02:10:34.211Z,7.47
2022-08-31T02:13:03.787Z,6.60
2022-08-31T02:15:32.094Z,7.00
2022-08-31T02:18:00.231Z,6.60
2022-08-31T02:20:29.969Z,6.00
2022-08-31T02:22:58.583Z,6.43
2022-08-31T02:25:26.704Z,6.77
2022-08-31T02:27:54.789Z,7.80
2022-08-31T02:30:24.357Z,7.53
2022-08-31T02:32:52.855Z,8.10
2022-08-31T02:35:21.201Z,8.67
2022-08-31T02:37:49.388Z,7.60
2022-08-31T02:40:17.546Z,8.63
2022-08-31T02:42:52.714Z,8.50
2022-08-31T02:45:24.135Z,9.57
2022-08-31T02:47:52.665Z,10.90
2022-08-31T02:50:20.987Z,11.10
2022-08-31T02:52:49.954Z,13.17
2022-08-31T02:55:18.892Z,16.93
2022-08-31T02:57:50.346Z,11.80
2022-08-31T03:00:20.266Z,12.10
2022-08-31T03:02:50.909Z,14.87
2022-08-31T03:05:22.103Z,17.07
2022-08-31T03:07:50.934Z,16.30
2022-08-31T03:10:21.252Z,17.73
2022-08-31T03:12:50.352Z,16.17
2022-08-31T03:15:20.248Z,17.40
2022-08-31T03:17:49.836Z,17.20
2022-08-31T03:20:19.563Z,15.60
2022-08-31T03:22:48.144Z,16.07
2022-08-31T03:25:17.662Z,15.53
2022-08-31T03:27:46.467Z,17.27
2022-08-31T03:30:16.870Z,19.63
2022-08-31T03:32:45.634Z,15.60
2022-08-31T03:35:15.772Z,16.00
2022-08-31T03:37:43.864Z,16.63
2022-08-31T03:40:13.133Z,16.60
2022-08-31T03:42:41.564Z,15.40
2022-08-31T03:45:11.205Z,14.67
2022-08-31T03:47:44.732Z,13.80
2022-08-31T03:50:16.048Z,14.73
2022-08-31T03:52:44.399Z,13.43
2022-08-31T03:55:13.270Z,11.13
2022-08-31T03:57:41.721Z,12.77
2022-08-31T04:00:11.561Z,12.10
2022-08-31T04:02:40.218Z,13.43
2022-08-31T04:05:09.958Z,11.37
2022-08-31T04:07:42.399Z,13.30
2022-08-31T04:10:12.700Z,11.67
2022-08-31T04:12:41.220Z,11.77
2022-08-31T04:15:10.109Z,12.53
2022-08-31T04:17:38.465Z,12.23
2022-08-31T04:20:07.975Z,11.57
2022-08-31T04:22:36.138Z,10.40
2022-08-31T04:25:06.168Z,11.37
2022-08-31T04:27:34.271Z,12.90
2022-08-31T04:30:03.808Z,11.30
2022-08-31T04:32:31.937Z,11.23
2022-08-31T04:35:01.886Z,10.70
2022-08-31T04:37:30.841Z,11.43
2022-08-31T04:40:01.310Z,10.70
2022-08-31T04:42:31.744Z,10.60
2022-08-31T04:44:59.924Z,10.63
2022-08-31T04:47:28.008Z,9.03
2022-08-31T04:49:56.577Z,6.47
2022-08-31T04:52:28.315Z,7.93
2022-08-31T04:54:56.982Z,9.03
2022-08-31T04:57:25.123Z,9.77
2022-08-31T04:59:54.775Z,9.40
2022-08-31T05:02:22.934Z,9.00
2022-08-31T05:04:51.172Z,11.37
2022-08-31T05:07:19.340Z,9.33
2022-08-31T05:09:47.552Z,10.70
2022-08-31T05:12:15.666Z,10.13
2022-08-31T05:14:43.831Z,11.23
2022-08-31T05:17:14.919Z,11.43
2022-08-31T05:19:43.579Z,9.50
2022-08-31T05:22:11.783Z,11.10
2022-08-31T05:24:39.935Z,10.77
2022-08-31T05:27:08.163Z,10.60
2022-08-31T05:29:36.364Z,11.70
2022-08-31T05:32:04.888Z,10.80
2022-08-31T05:34:34.485Z,10.57
2022-08-31T05:37:02.604Z,12.53
2022-08-31T05:39:32.093Z,11.87
2022-08-31T05:42:00.375Z,14.23
2022-08-31T05:44:29.417Z,12.70
2022-08-31T05:47:04.037Z,12.87
2022-08-31T05:49:34.188Z,12.37
2022-08-31T05:52:02.791Z,14.20
2022-08-31T05:54:31.324Z,12.60
2022-08-31T05:57:01.292Z,13.30
2022-08-31T05:59:30.993Z,15.70
2022-08-31T06:01:59.153Z,16.03
2022-08-31T06:04:27.834Z,17.00
2022-08-31T06:06:57.865Z,17.43
2022-08-31T06:09:26.595Z,14.60
2022-08-31T06:11:55.089Z,12.63
2022-08-31T06:14:23.849Z,11.80
2022-08-31T06:16:52.624Z,11.23
2022-08-31T06:19:21.333Z,12.37
2022-08-31T06:21:51.446Z,11.47
2022-08-31T06:24:21.451Z,12.57
2022-08-31T06:26:56.707Z,12.73
2022-08-31T06:29:26.385Z,13.03
2022-08-31T06:31:55.550Z,11.47
2022-08-31T06:34:24.630Z,12.00
2022-08-31T06:36:52.864Z,13.10
2022-08-31T06:39:22.468Z,7.40
2022-08-31T06:41:52.598Z,11.70
2022-08-31T06:44:22.328Z,13.17
2022-08-31T06:46:50.896Z,14.30
2022-08-31T06:49:20.441Z,8.27
2022-08-31T06:51:48.906Z,13.40
2022-08-31T06:54:29.489Z,16.63
2022-08-31T06:57:02.767Z,15.40
2022-08-31T06:59:31.091Z,17.50
2022-08-31T07:02:00.239Z,15.37
2022-08-31T07:04:33.432Z,14.20
2022-08-31T07:07:01.816Z,15.83
2022-08-31T07:09:30.097Z,15.57
2022-08-31T07:11:59.767Z,16.90
2022-08-31T07:14:28.672Z,17.53
2022-08-31T07:16:58.405Z,20.00
2022-08-31T07:19:28.136Z,20.63
2022-08-31T07:21:57.666Z,22.07
2022-08-31T07:24:29.998Z,12.30
2022-08-31T07:27:02.258Z,25.37
2022-08-31T07:29:34.097Z,16.50
2022-08-31T07:32:02.380Z,33.33
2022-08-31T07:34:33.884Z,24.20
2022-08-31T07:37:19.902Z,18.87
2022-08-31T07:40:08.142Z,36.03
2022-08-31T07:42:39.839Z,24.73
2022-08-31T07:45:12.613Z,28.43
2022-08-31T07:47:45.344Z,26.93
2022-08-31T07:50:15.358Z,28.30
2022-08-31T07:52:47.265Z,26.30
2022-08-31T07:55:17.793Z,26.87
2022-08-31T07:57:47.308Z,27.10
2022-08-31T08:00:18.191Z,23.13
2022-08-31T08:02:52.823Z,25.83
2022-08-31T08:05:27.004Z,22.77
2022-08-31T08:08:00.160Z,11.60
2022-08-31T08:10:30.062Z,10.60
2022-08-31T08:13:05.191Z,21.40
2022-08-31T08:15:36.081Z,24.30
2022-08-31T08:18:04.896Z,22.50
2022-08-31T08:20:37.409Z,22.53
2022-08-31T08:23:11.493Z,23.90
2022-08-31T08:25:43.308Z,19.73
2022-08-31T08:28:38.062Z,12.90
2022-08-31T08:31:06.487Z,20.33
2022-08-31T08:33:36.297Z,13.53
2022-08-31T08:36:08.256Z,22.60
2022-08-31T08:38:39.304Z,23.93
2022-08-31T08:41:13.225Z,23.13
2022-08-31T08:43:52.400Z,11.90
2022-08-31T08:46:37.653Z,23.80
2022-08-31T08:49:18.103Z,19.10
2022-08-31T08:51:48.021Z,11.93
2022-08-31T08:54:27.491Z,18.87
2022-08-31T08:56:59.549Z,20.40
2022-08-31T08:59:31.386Z,19.83
2022-08-31T09:02:06.380Z,21.70
2022-08-31T09:04:50.246Z,20.97
2022-08-31T09:07:37.152Z,18.17
2022-08-31T09:10:11.830Z,19.83
2022-08-31T09:12:47.180Z,16.80
2022-08-31T09:15:36.679Z,22.00
2022-08-31T09:18:17.756Z,18.20
2022-08-31T09:21:21.518Z,18.73
2022-08-31T09:23:59.589Z,24.93
2022-08-31T09:26:27.798Z,21.40
2022-08-31T09:28:56.970Z,12.00
2022-08-31T09:31:37.699Z,20.83
2022-08-31T09:34:14.053Z,20.37
2022-08-31T09:36:42.553Z,19.10
2022-08-31T09:39:19.692Z,19.50
2022-08-31T09:41:49.847Z,16.80
2022-08-31T09:44:32.916Z,18.33
2022-08-31T09:47:05.575Z,10.57
2022-08-31T09:49:36.839Z,16.90
2022-08-31T09:52:19.255Z,9.13
2022-08-31T09:55:13.698Z,12.07
2022-08-31T09:57:53.192Z,12.00
2022-08-31T10:00:36.296Z,15.73
2022-08-31T10:03:13.561Z,10.37
2022-08-31T10:05:44.558Z,12.00
2022-08-31T10:08:31.704Z,8.10
2022-08-31T10:11:06.441Z,12.60
2022-08-31T10:13:39.817Z,12.30
2022-08-31T10:16:17.100Z,11.83
2022-08-31T10:18:56.761Z,7.30
2022-08-31T10:21:35.284Z,9.00
2022-08-31T10:24:20.593Z,8.70
2022-08-31T10:26:53.427Z,13.00
2022-08-31T10:29:30.148Z,8.47
2022-08-31T10:32:00.980Z,11.43
2022-08-31T10:34:52.185Z,10.40
2022-08-31T10:37:25.954Z,10.57
2022-08-31T10:39:58.240Z,8.07
2022-08-31T10:42:32.164Z,9.57
2022-08-31T10:45:07.889Z,10.83
2022-08-31T10:47:41.498Z,9.00
2022-08-31T10:50:16.334Z,6.40
2022-08-31T10:53:02.490Z,7.67
2022-08-31T10:55:37.430Z,7.33
2022-08-31T10:58:15.487Z,11.00
2022-08-31T11:00:51.237Z,6.40
2022-08-31T11:03:36.466Z,9.80
2022-08-31T11:06:14.068Z,11.10
2022-08-31T11:08:49.056Z,11.87
2022-08-31T11:11:28.299Z,8.77
2022-08-31T11:14:23.687Z,8.40
2022-08-31T11:17:13.785Z,7.13
2022-08-31T11:20:00.659Z,11.47
2022-08-31T11:22:52.245Z,10.80
2022-08-31T11:25:51.377Z,12.43
2022-08-31T11:28:34.310Z,9.60
2022-08-31T11:31:07.515Z,6.13
2022-08-31T11:33:37.560Z,8.77
2022-08-31T11:36:10.069Z,8.20
2022-08-31T11:38:50.075Z,7.63
2022-08-31T11:41:41.230Z,9.60
2022-08-31T11:44:10.997Z,10.00
2022-08-31T11:47:02.046Z,8.03
2022-08-31T11:49:45.804Z,7.37
2022-08-31T11:52:43.333Z,9.20
2022-08-31T11:55:28.530Z,10.30
2022-08-31T11:58:34.284Z,9.83
2022-08-31T12:01:23.874Z,7.17
2022-08-31T12:03:53.996Z,9.10
2022-08-31T12:07:07.299Z,8.43
2022-08-31T12:10:17.973Z,9.37
2022-08-31T12:12:59.245Z,8.23
2022-08-31T12:15:37.297Z,8.13
2022-08-31T12:18:18.803Z,6.13
2022-08-31T12:21:13.689Z,9.73
2022-08-31T12:23:52.805Z,8.77
2022-08-31T12:26:57.223Z,8.70
2022-08-31T12:29:29.934Z,7.70
2022-08-31T12:32:12.818Z,11.43
2022-08-31T12:34:45.794Z,9.80
2022-08-31T12:37:22.415Z,9.30
2022-08-31T12:39:50.759Z,9.07
2022-08-31T12:42:19.726Z,9.17
2022-08-31T12:44:53.245Z,11.50
2022-08-31T12:47:28.891Z,10.47
2022-08-31T12:50:13.958Z,8.23
2022-08-31T12:53:08.392Z,9.63
2022-08-31T12:55:43.883Z,7.07
2022-08-31T12:58:41.722Z,7.97
2022-08-31T13:01:14.789Z,9.90
2022-08-31T13:03:52.653Z,9.07
2022-08-31T13:06:27.034Z,8.27
2022-08-31T13:08:56.113Z,9.57
2022-08-31T13:11:35.040Z,8.63
2022-08-31T13:14:15.210Z,8.43
2022-08-31T13:16:47.224Z,10.07
2022-08-31T13:19:22.803Z,6.10
2022-08-31T13:21:53.495Z,10.40
2022-08-31T13:24:29.648Z,8.60
2022-08-31T13:27:11.131Z,8.60
2022-08-31T13:29:45.081Z,7.80
2022-08-31T13:32:31.663Z,6.80
2022-08-31T13:35:01.821Z,5.73
2022-08-31T13:37:32.929Z,7.10
2022-08-31T13:40:09.125Z,7.83
2022-08-31T13:42:42.904Z,8.40
2022-08-31T13:45:26.663Z,6.37
2022-08-31T13:47:59.510Z,8.30
2022-08-31T13:50:33.977Z,9.57
2022-08-31T13:53:26.001Z,7.60
2022-08-31T13:55:52.869Z,10.53
2022-08-31T13:58:29.003Z,5.70
2022-08-31T14:01:23.255Z,8.90
2022-08-31T14:03:58.044Z,6.80
2022-08-31T14:06:28.889Z,8.27
2022-08-31T14:09:03.400Z,7.53
2022-08-31T14:11:33.873Z,10.30
2022-08-31T14:14:08.321Z,6.40
2022-08-31T14:16:45.215Z,8.37
2022-08-31T14:19:33.283Z,7.60
2022-08-31T14:22:17.349Z,8.20
2022-08-31T14:24:45.517Z,8.03
2022-08-31T14:27:13.808Z,8.83
2022-08-31T14:29:42.000Z,8.53
2022-08-31T14:32:10.135Z,7.20
2022-08-31T14:34:41.126Z,6.90
2022-08-31T14:37:19.651Z,7.53
2022-08-31T14:39:51.602Z,7.47
2022-08-31T14:42:24.649Z,6.50
2022-08-31T14:44:56.719Z,7.73
2022-08-31T14:47:27.655Z,8.03
2022-08-31T14:50:05.628Z,9.10
2022-08-31T14:52:35.588Z,8.93
2022-08-31T14:55:05.064Z,10.67
2022-08-31T14:57:34.787Z,8.27
2022-08-31T15:00:06.200Z,8.30
2022-08-31T15:02:35.242Z,8.40
2022-08-31T15:05:07.483Z,10.93
2022-08-31T15:07:39.292Z,8.70
2022-08-31T15:10:12.777Z,8.23
2022-08-31T15:12:40.923Z,8.93
2022-08-31T15:15:11.248Z,7.10
2022-08-31T15:17:40.208Z,7.27
2022-08-31T15:20:11.407Z,6.27
2022-08-31T15:22:40.608Z,6.67
2022-08-31T15:25:12.377Z,5.53
2022-08-31T15:27:43.957Z,8.37
2022-08-31T15:30:12.617Z,7.50
2022-08-31T15:32:43.703Z,5.30
2022-08-31T15:35:17.963Z,6.50
2022-08-31T15:37:56.457Z,6.23
2022-08-31T15:40:25.369Z,7.70
2022-08-31T15:42:57.223Z,6.27
2022-08-31T15:45:29.869Z,7.50
2022-08-31T15:48:16.477Z,7.43
2022-08-31T15:50:52.660Z,8.10
2022-08-31T15:53:27.331Z,6.43
2022-08-31T15:55:55.532Z,7.30
2022-08-31T15:58:25.363Z,7.27
2022-08-31T16:00:53.620Z,7.40
2022-08-31T16:03:21.780Z,8.07
2022-08-31T16:05:51.270Z,7.17
2022-08-31T16:08:28.445Z,6.40
2022-08-31T16:10:56.992Z,8.63
2022-08-31T16:13:25.154Z,6.50
2022-08-31T16:15:54.046Z,7.03
2022-08-31T16:18:23.020Z,6.10
2022-08-31T16:20:52.782Z,7.13
2022-08-31T16:23:24.796Z,6.40
2022-08-31T16:25:52.927Z,7.30
2022-08-31T16:28:22.110Z,7.83
2022-08-31T16:30:51.828Z,7.20
2022-08-31T16:33:20.337Z,6.40
2022-08-31T16:35:48.481Z,7.23
2022-08-31T16:38:18.239Z,6.70
2022-08-31T16:40:46.652Z,6.10
2022-08-31T16:43:14.760Z,7.00
2022-08-31T16:45:43.202Z,7.47
2022-08-31T16:48:30.020Z,6.40
2022-08-31T16:51:02.195Z,6.97
2022-08-31T16:53:31.962Z,7.60
2022-08-31T16:56:00.679Z,8.97
2022-08-31T16:58:50.477Z,7.30
2022-08-31T17:01:20.017Z,7.90
2022-08-31T17:03:50.700Z,8.10
2022-08-31T17:06:19.471Z,9.00
2022-08-31T17:08:48.971Z,8.17
2022-08-31T17:11:23.696Z,8.77
2022-08-31T17:13:58.146Z,9.27
2022-08-31T17:16:28.832Z,7.17
2022-08-31T17:18:58.335Z,7.57
2022-08-31T17:21:29.582Z,8.33
2022-08-31T17:24:01.935Z,7.90
2022-08-31T17:26:35.100Z,8.47
2022-08-31T17:29:06.990Z,7.60
2022-08-31T17:31:46.075Z,7.90
2022-08-31T17:34:18.936Z,8.00
2022-08-31T17:36:48.928Z,8.20
2022-08-31T17:39:21.152Z,8.30
2022-08-31T17:41:51.415Z,8.70
2022-08-31T17:44:23.022Z,8.03
2022-08-31T17:46:53.663Z,8.20
2022-08-31T17:49:24.709Z,10.33
2022-08-31T17:51:54.221Z,9.93
2022-08-31T17:54:31.065Z,8.23
2022-08-31T17:57:00.657Z,8.80
2022-08-31T17:59:31.253Z,6.83
2022-08-31T18:02:02.877Z,7.10
2022-08-31T18:04:34.079Z,7.80
2022-08-31T18:07:03.173Z,7.60
2022-08-31T18:09:35.689Z,7.70
2022-08-31T18:12:05.134Z,6.57
2022-08-31T18:14:34.990Z,7.20
2022-08-31T18:17:05.053Z,7.97
2022-08-31T18:19:35.290Z,8.20
2022-08-31T18:22:03.733Z,10.27
2022-08-31T18:24:35.894Z,7.00
2022-08-31T18:27:07.030Z,8.47
2022-08-31T18:29:37.048Z,8.83
2022-08-31T18:32:06.951Z,7.83
2022-08-31T18:34:38.893Z,8.80
2022-08-31T18:37:08.133Z,7.33
2022-08-31T18:39:52.439Z,8.23
2022-08-31T18:42:38.403Z,7.90
2022-08-31T18:45:18.173Z,8.90
2022-08-31T18:48:07.255Z,9.47
2022-08-31T18:50:36.988Z,8.17
2022-08-31T18:53:10.726Z,8.20
2022-08-31T18:55:40.896Z,8.50
2022-08-31T18:58:09.331Z,7.53
2022-08-31T19:00:37.656Z,9.03
2022-08-31T19:03:06.658Z,8.53
2022-08-31T19:05:38.460Z,7.30
2022-08-31T19:08:06.626Z,7.07
2022-08-31T19:10:35.797Z,8.97
2022-08-31T19:13:07.852Z,7.83
2022-08-31T19:15:39.603Z,8.70
2022-08-31T19:18:08.054Z,7.20
2022-08-31T19:20:36.320Z,7.00
2022-08-31T19:23:04.459Z,8.27
2022-08-31T19:25:32.925Z,8.80
2022-08-31T19:28:06.511Z,7.83
2022-08-31T19:30:36.239Z,7.47
2022-08-31T19:33:06.144Z,7.50
2022-08-31T19:35:34.320Z,7.77
2022-08-31T19:38:02.455Z,8.20
2022-08-31T19:40:38.081Z,6.90
2022-08-31T19:46:09.646Z,7.30
2022-08-31T19:48:45.990Z,7.17
2022-08-31T19:51:15.247Z,8.07
2022-08-31T19:53:45.012Z,6.70
2022-08-31T19:56:17.639Z,7.50
2022-08-31T19:58:48.357Z,7.73
2022-08-31T20:01:19.604Z,9.47
2022-08-31T20:03:49.150Z,7.17
2022-08-31T20:06:20.425Z,6.60
2022-08-31T20:08:49.625Z,6.10
2022-08-31T20:11:21.920Z,6.33
2022-08-31T20:13:50.491Z,6.57
2022-08-31T20:16:22.148Z,7.50
2022-08-31T20:18:57.591Z,6.63
2022-08-31T20:21:31.059Z,6.87
2022-08-31T20:24:02.863Z,6.73
2022-08-31T20:26:37.691Z,5.77
2022-08-31T20:29:16.057Z,6.53
2022-08-31T20:31:48.533Z,6.00
2022-08-31T20:34:19.592Z,6.90
2022-08-31T20:36:50.120Z,6.40
2022-08-31T20:39:20.084Z,6.27
2022-08-31T20:41:50.953Z,5.17
2022-08-31T20:44:21.008Z,6.03
2022-08-31T20:47:10.540Z,6.50
2022-08-31T20:49:40.920Z,7.07
2022-08-31T20:52:09.829Z,6.27
2022-08-31T20:54:38.575Z,7.00
2022-08-31T20:57:10.138Z,6.27
2022-08-31T20:59:39.457Z,6.87
2022-08-31T21:02:09.655Z,5.27
2022-08-31T21:04:39.770Z,7.07
2022-08-31T21:07:12.051Z,5.40
2022-08-31T21:09:41.300Z,5.47
2022-08-31T21:12:10.971Z,6.60
2022-08-31T21:14:43.535Z,6.73
2022-08-31T21:17:14.210Z,7.40
2022-08-31T21:19:43.467Z,7.27
2022-08-31T21:22:13.767Z,5.40
2022-08-31T21:24:43.510Z,7.20
2022-08-31T21:27:13.838Z,7.13
2022-08-31T21:29:43.538Z,8.40
2022-08-31T21:32:13.055Z,6.90
2022-08-31T21:34:41.336Z,7.00
2022-08-31T21:37:10.381Z,6.53
2022-08-31T21:39:38.732Z,7.43
2022-08-31T21:42:07.361Z,5.33
2022-08-31T21:44:35.996Z,5.90
2022-08-31T21:47:04.522Z,6.00
2022-08-31T21:49:36.449Z,7.20
2022-08-31T21:52:04.718Z,5.70
2022-08-31T21:54:32.892Z,8.50
2022-08-31T21:57:02.868Z,6.07
2022-08-31T21:59:35.065Z,6.20
2022-08-31T22:02:06.490Z,7.60
2022-08-31T22:04:39.744Z,5.57
2022-08-31T22:07:09.518Z,7.90
2022-08-31T22:09:38.468Z,9.50
2022-08-31T22:12:08.325Z,6.67
2022-08-31T22:14:41.333Z,10.47
2022-08-31T22:17:10.018Z,9.43
2022-08-31T22:19:40.856Z,9.50
2022-08-31T22:22:12.522Z,10.93
2022-08-31T22:24:42.292Z,10.40
2022-08-31T22:27:12.250Z,6.70
2022-08-31T22:29:41.066Z,6.43
2022-08-31T22:32:12.388Z,8.50
2022-08-31T22:34:42.946Z,10.37
2022-08-31T22:37:13.847Z,7.10
2022-08-31T22:39:43.423Z,10.57
2022-08-31T22:42:12.004Z,11.47
2022-08-31T22:44:40.610Z,7.10
2022-08-31T22:47:09.395Z,10.70
2022-08-31T22:49:37.611Z,8.73
2022-08-31T22:52:07.309Z,10.13
2022-08-31T22:54:36.352Z,10.77
2022-08-31T22:57:04.840Z,11.10
2022-08-31T22:59:33.052Z,10.07
2022-08-31T23:02:03.600Z,10.40
2022-08-31T23:04:34.251Z,11.57
2022-08-31T23:07:04.281Z,11.60
2022-08-31T23:09:34.445Z,10.97
2022-08-31T23:12:05.187Z,11.33
2022-08-31T23:14:34.013Z,12.20
2022-08-31T23:17:05.466Z,11.90
2022-08-31T23:19:36.940Z,10.70
2022-08-31T23:22:07.571Z,11.63
2022-08-31T23:24:40.778Z,12.33
2022-08-31T23:27:10.471Z,6.80
2022-08-31T23:29:41.061Z,5.93
2022-08-31T23:32:13.386Z,11.83
2022-08-31T23:34:42.066Z,12.33
2022-08-31T23:37:10.948Z,13.93
2022-08-31T23:39:43.429Z,11.40
2022-08-31T23:42:13.115Z,11.53
2022-08-31T23:44:43.290Z,12.63
2022-08-31T23:47:13.649Z,13.47
2022-08-31T23:49:43.840Z,13.80
2022-08-31T23:52:13.315Z,16.90
2022-08-31T23:54:42.887Z,14.40
2022-08-31T23:57:17.595Z,15.70
